createdAt,value
2022-12-24T00:02:29.912Z,31.55
2022-12-24T00:05:32.457Z,31.77
2022-12-24T00:08:35.358Z,28.40
2022-12-24T00:11:37.758Z,30.33
2022-12-24T00:14:40.063Z,30.92
2022-12-24T00:17:42.576Z,31.03
2022-12-24T00:20:49.213Z,32.15
2022-12-24T00:23:51.644Z,31.58
2022-12-24T00:26:53.985Z,32.40
2022-12-24T00:29:56.378Z,30.48
2022-12-24T00:32:59.021Z,28.83
2022-12-24T00:36:01.422Z,26.50
2022-12-24T00:39:03.972Z,22.80
2022-12-24T00:42:06.379Z,21.45
2022-12-24T00:45:09.870Z,22.35
2022-12-24T00:48:12.240Z,25.93
2022-12-24T00:51:15.144Z,24.45
2022-12-24T00:54:17.556Z,26.80
2022-12-24T00:57:19.974Z,26.40
2022-12-24T01:00:23.153Z,27.98
2022-12-24T01:03:37.975Z,27.67
2022-12-24T01:06:40.775Z,28.13
2022-12-24T01:09:43.178Z,28.70
2022-12-24T01:12:46.971Z,27.05
2022-12-24T01:15:49.589Z,25.45
2022-12-24T01:18:52.021Z,24.20
2022-12-24T01:21:54.511Z,24.25
2022-12-24T01:24:56.951Z,26.08
2022-12-24T01:27:59.447Z,27.58
2022-12-24T01:31:01.949Z,25.73
2022-12-24T01:34:04.476Z,24.13
2022-12-24T01:37:06.882Z,21.80
2022-12-24T01:40:33.956Z,20.20
2022-12-24T01:43:36.483Z,18.85
2022-12-24T01:46:38.893Z,19.02
2022-12-24T01:50:02.022Z,18.60
2022-12-24T01:53:06.585Z,19.33
2022-12-24T01:56:11.067Z,19.45
2022-12-24T01:59:16.385Z,19.90
2022-12-24T02:02:20.376Z,17.52
2022-12-24T02:05:32.312Z,18.38
2022-12-24T02:08:40.418Z,16.77
2022-12-24T02:11:44.908Z,16.07
2022-12-24T02:14:47.337Z,16.40
2022-12-24T02:18:07.335Z,15.93
2022-12-24T02:21:38.132Z,17.07
2022-12-24T02:25:07.473Z,18.13
2022-12-24T02:28:34.435Z,17.85
2022-12-24T02:31:43.299Z,17.65
2022-12-24T02:34:51.366Z,19.23
2022-12-24T02:38:01.218Z,20.80
2022-12-24T02:41:07.823Z,20.77
2022-12-24T02:44:10.323Z,19.50
2022-12-24T02:47:16.918Z,18.17
2022-12-24T02:50:20.510Z,19.80
2022-12-24T02:53:22.865Z,18.20
2022-12-24T02:56:52.768Z,19.17
2022-12-24T03:00:06.163Z,21.90
2022-12-24T03:03:33.648Z,22.15
2022-12-24T03:07:05.132Z,19.27
2022-12-24T03:10:24.226Z,18.70
2022-12-24T03:13:28.768Z,18.83
2022-12-24T03:16:31.343Z,16.53
2022-12-24T03:19:35.269Z,15.88
2022-12-24T03:22:38.747Z,16.85
2022-12-24T03:25:43.747Z,14.23
2022-12-24T03:28:47.306Z,14.80
2022-12-24T03:31:53.234Z,14.73
2022-12-24T03:34:56.405Z,14.15
2022-12-24T03:37:58.900Z,14.73
2022-12-24T03:41:06.997Z,14.80
2022-12-24T03:44:09.572Z,15.30
2022-12-24T03:47:11.932Z,16.47
2022-12-24T03:50:14.449Z,16.88
2022-12-24T03:53:16.841Z,13.88
2022-12-24T03:56:20.663Z,14.63
2022-12-24T03:59:23.014Z,14.43
2022-12-24T04:02:25.599Z,15.35
2022-12-24T04:05:28.063Z,13.77
2022-12-24T04:08:31.033Z,18.15
2022-12-24T04:11:34.534Z,14.48
2022-12-24T04:14:36.947Z,13.38
2022-12-24T04:17:39.258Z,17.03
2022-12-24T04:20:44.006Z,15.57
2022-12-24T04:23:47.954Z,15.40
2022-12-24T04:26:50.438Z,15.53
2022-12-24T04:29:52.852Z,16.85
2022-12-24T04:32:55.298Z,16.58
2022-12-24T04:35:58.878Z,17.02
2022-12-24T04:39:01.615Z,16.50
2022-12-24T04:42:04.239Z,20.38
2022-12-24T04:45:07.180Z,20.38
2022-12-24T04:48:10.216Z,16.33
2022-12-24T04:51:14.461Z,18.08
2022-12-24T04:54:16.766Z,17.10
2022-12-24T04:57:19.184Z,17.53
2022-12-24T05:00:21.904Z,19.85
2022-12-24T05:03:24.723Z,20.33
2022-12-24T05:06:31.111Z,22.42
2022-12-24T05:09:33.610Z,23.13
2022-12-24T05:12:36.008Z,20.20
2022-12-24T05:15:38.405Z,20.63
2022-12-24T05:18:41.097Z,20.77
2022-12-24T05:21:43.540Z,19.48
2022-12-24T05:25:04.110Z,20.33
2022-12-24T05:28:06.510Z,18.33
2022-12-24T05:31:09.376Z,17.98
2022-12-24T05:34:13.725Z,18.52
2022-12-24T05:37:16.057Z,17.27
2022-12-24T05:40:18.805Z,19.85
2022-12-24T05:43:21.224Z,23.52
2022-12-24T05:46:25.576Z,19.00
2022-12-24T05:49:28.936Z,17.43
2022-12-24T05:52:31.249Z,17.45
2022-12-24T05:55:34.460Z,21.50
2022-12-24T05:58:37.947Z,23.00
2022-12-24T06:01:40.636Z,21.92
2022-12-24T06:04:43.128Z,20.77
2022-12-24T06:07:45.513Z,18.20
2022-12-24T06:11:00.958Z,19.30
2022-12-24T06:14:03.517Z,22.77
2022-12-24T06:17:05.992Z,17.10
2022-12-24T06:20:09.369Z,16.70
2022-12-24T06:23:12.604Z,18.27
2022-12-24T06:26:17.416Z,17.58
2022-12-24T06:29:19.997Z,15.70
2022-12-24T06:32:22.360Z,26.73
2022-12-24T06:35:24.899Z,34.35
2022-12-24T06:38:27.386Z,24.73
2022-12-24T06:41:29.778Z,22.42
2022-12-24T06:44:32.124Z,19.27
2022-12-24T06:47:34.683Z,15.75
2022-12-24T06:50:38.241Z,15.97
2022-12-24T06:53:41.173Z,19.60
2022-12-24T06:56:43.668Z,27.23
2022-12-24T06:59:46.029Z,35.00
2022-12-24T07:02:48.470Z,31.38
2022-12-24T07:05:51.142Z,31.55
2022-12-24T07:08:53.953Z,29.95
2022-12-24T07:11:56.381Z,26.77
2022-12-24T07:14:58.780Z,21.48
2022-12-24T07:18:01.196Z,25.00
2022-12-24T07:21:07.596Z,21.20
2022-12-24T07:24:10.343Z,18.98
2022-12-24T07:27:12.990Z,19.27
2022-12-24T07:30:15.964Z,17.77
2022-12-24T07:33:19.019Z,18.55
2022-12-24T07:36:22.021Z,17.35
2022-12-24T07:39:24.465Z,16.00
2022-12-24T07:42:26.847Z,17.25
2022-12-24T07:45:30.633Z,33.40
2022-12-24T07:48:33.495Z,20.48
2022-12-24T07:51:36.227Z,22.07
2022-12-24T07:54:39.422Z,18.98
2022-12-24T07:57:41.753Z,22.60
2022-12-24T08:00:45.574Z,38.80
2022-12-24T08:03:48.187Z,18.42
2022-12-24T08:06:50.615Z,17.38
2022-12-24T08:09:52.957Z,18.65
2022-12-24T08:12:55.455Z,16.20
2022-12-24T08:15:58.007Z,15.88
2022-12-24T08:19:00.403Z,17.30
2022-12-24T08:22:02.750Z,16.97
2022-12-24T08:25:05.479Z,17.70
2022-12-24T08:28:07.804Z,19.02
2022-12-24T08:31:10.319Z,25.53
2022-12-24T08:34:12.721Z,20.02
2022-12-24T08:37:15.062Z,30.08
2022-12-24T08:40:20.015Z,29.83
2022-12-24T08:43:22.851Z,27.25
2022-12-24T08:46:25.464Z,25.00
2022-12-24T08:49:28.093Z,24.70
2022-12-24T08:52:30.499Z,26.77
2022-12-24T08:55:32.869Z,25.10
2022-12-24T08:58:35.622Z,25.65
2022-12-24T09:01:39.080Z,26.13
2022-12-24T09:04:41.821Z,19.77
2022-12-24T09:07:44.499Z,24.50
2022-12-24T09:10:47.230Z,22.90
2022-12-24T09:13:50.776Z,32.28
2022-12-24T09:16:53.175Z,30.73
2022-12-24T09:19:55.547Z,36.05
2022-12-24T09:22:58.056Z,33.83
2022-12-24T09:26:00.474Z,28.60
2022-12-24T09:29:03.257Z,35.97
2022-12-24T09:32:05.945Z,38.53
2022-12-24T09:35:08.762Z,38.25
2022-12-24T09:38:11.260Z,30.33
2022-12-24T09:41:16.272Z,30.40
2022-12-24T09:44:21.311Z,30.08
2022-12-24T09:47:39.727Z,26.02
2022-12-24T09:51:09.189Z,27.30
2022-12-24T09:54:32.385Z,25.13
2022-12-24T09:57:39.034Z,24.88
2022-12-24T10:00:47.735Z,24.10
2022-12-24T10:03:52.260Z,16.53
2022-12-24T10:07:13.118Z,17.10
2022-12-24T10:10:22.706Z,16.50
2022-12-24T10:13:48.039Z,15.32
2022-12-24T10:17:13.159Z,15.35
2022-12-24T10:20:30.636Z,15.88
2022-12-24T10:24:00.803Z,17.27
2022-12-24T10:27:15.120Z,14.43
2022-12-24T10:30:20.912Z,14.07
2022-12-24T10:33:32.185Z,13.18
2022-12-24T10:36:34.507Z,13.73
2022-12-24T10:39:37.034Z,13.98
2022-12-24T10:42:50.216Z,13.00
2022-12-24T10:46:04.848Z,14.75
2022-12-24T10:49:13.818Z,14.68
2022-12-24T10:52:21.615Z,13.38
2022-12-24T10:55:24.537Z,12.27
2022-12-24T10:58:26.970Z,10.93
2022-12-24T11:01:47.406Z,11.25
2022-12-24T11:04:50.717Z,10.73
2022-12-24T11:08:14.990Z,11.33
2022-12-24T11:11:20.372Z,12.18
2022-12-24T11:14:23.069Z,12.32
2022-12-24T11:17:25.652Z,12.50
2022-12-24T11:20:30.428Z,15.52
2022-12-24T11:23:33.127Z,14.27
2022-12-24T11:26:35.712Z,13.57
2022-12-24T11:29:38.064Z,13.70
2022-12-24T11:32:51.197Z,12.73
2022-12-24T11:35:57.725Z,13.68
2022-12-24T11:39:00.548Z,12.33
2022-12-24T11:42:03.910Z,15.00
2022-12-24T11:45:28.684Z,18.23
2022-12-24T11:48:34.790Z,19.35
2022-12-24T11:51:39.119Z,18.65
2022-12-24T11:55:20.307Z,17.10
2022-12-24T11:58:34.449Z,17.55
2022-12-24T12:02:00.159Z,19.30
2022-12-24T12:05:15.221Z,20.67
2022-12-24T12:08:21.685Z,13.80
2022-12-24T12:11:27.459Z,14.57
2022-12-24T12:14:36.127Z,27.52
2022-12-24T12:17:54.926Z,14.48
2022-12-24T12:21:04.791Z,14.95
2022-12-24T12:24:32.006Z,16.08
2022-12-24T12:27:43.542Z,16.30
2022-12-24T12:30:54.178Z,17.20
2022-12-24T12:34:04.034Z,18.90
2022-12-24T12:37:18.195Z,20.10
2022-12-24T12:40:24.248Z,21.90
2022-12-24T12:43:54.609Z,23.30
2022-12-24T12:47:17.218Z,19.95
2022-12-24T12:50:33.525Z,18.42
2022-12-24T12:54:09.442Z,17.85
2022-12-24T12:57:15.880Z,15.88
2022-12-24T13:00:19.907Z,18.92
2022-12-24T13:03:34.432Z,18.65
2022-12-24T13:07:07.580Z,20.67
2022-12-24T13:10:23.783Z,24.95
2022-12-24T13:14:00.131Z,25.02
2022-12-24T13:17:08.408Z,34.57
2022-12-24T13:20:18.949Z,36.13
2022-12-24T13:23:23.845Z,37.75
2022-12-24T13:26:26.266Z,34.30
2022-12-24T13:29:43.800Z,28.42
2022-12-24T13:32:54.409Z,24.02
2022-12-24T13:36:00.077Z,19.08
2022-12-24T13:39:02.535Z,16.50
2022-12-24T13:42:04.945Z,23.73
2022-12-24T13:45:28.846Z,29.13
2022-12-24T13:48:34.440Z,24.20
2022-12-24T13:51:37.162Z,21.77
2022-12-24T13:54:43.304Z,23.35
2022-12-24T13:57:53.624Z,30.00
2022-12-24T14:00:59.870Z,45.63
2022-12-24T14:04:06.705Z,38.25
2022-12-24T14:07:11.455Z,23.80
2022-12-24T14:10:26.772Z,27.07
2022-12-24T14:13:49.065Z,26.90
2022-12-24T14:16:52.917Z,21.92
2022-12-24T14:19:58.835Z,23.07
2022-12-24T14:23:01.818Z,23.67
2022-12-24T14:26:11.923Z,22.83
2022-12-24T14:29:25.407Z,28.67
2022-12-24T14:32:38.464Z,25.60
2022-12-24T14:35:42.043Z,25.52
2022-12-24T14:38:45.761Z,23.88
2022-12-24T14:42:00.103Z,28.07
2022-12-24T14:45:18.298Z,26.45
2022-12-24T14:48:57.772Z,23.02
2022-12-24T14:52:00.536Z,18.73
2022-12-24T14:55:28.669Z,18.73
2022-12-24T14:58:33.254Z,20.15
2022-12-24T15:01:35.753Z,26.20
2022-12-24T15:04:38.465Z,25.67
2022-12-24T15:07:48.050Z,93.30
2022-12-24T15:10:53.611Z,42.53
2022-12-24T15:13:59.320Z,50.53
2022-12-24T15:17:06.945Z,47.63
2022-12-24T15:20:17.089Z,63.92
2022-12-24T15:23:28.821Z,75.27
2022-12-24T15:26:36.188Z,73.43
2022-12-24T15:29:44.103Z,68.07
2022-12-24T15:32:46.951Z,89.75
2022-12-24T15:35:53.468Z,75.63
2022-12-24T15:38:59.182Z,78.90
2022-12-24T15:42:13.907Z,79.70
2022-12-24T15:45:26.609Z,58.90
2022-12-24T15:48:31.509Z,64.15
2022-12-24T15:51:38.250Z,50.22
2022-12-24T15:54:50.882Z,38.37
2022-12-24T15:57:58.251Z,44.80
2022-12-24T16:01:09.881Z,43.05
2022-12-24T16:04:16.232Z,44.72
2022-12-24T16:07:26.535Z,33.88
2022-12-24T16:10:29.108Z,41.80
2022-12-24T16:13:35.036Z,39.63
2022-12-24T16:16:46.457Z,88.90
2022-12-24T16:19:51.950Z,39.33
2022-12-24T16:22:54.381Z,39.38
2022-12-24T16:25:58.367Z,44.07
2022-12-24T16:29:00.848Z,40.67
2022-12-24T16:32:03.471Z,47.45
2022-12-24T16:35:12.825Z,46.55
2022-12-24T16:38:15.723Z,37.05
2022-12-24T16:41:18.069Z,42.45
2022-12-24T16:44:20.407Z,60.45
2022-12-24T16:47:27.330Z,42.23
2022-12-24T16:50:29.731Z,42.13
2022-12-24T16:53:32.182Z,41.63
2022-12-24T16:56:34.599Z,37.43
2022-12-24T16:59:37.780Z,39.70
2022-12-24T17:02:40.316Z,43.88
2022-12-24T17:05:44.607Z,32.88
2022-12-24T17:08:48.848Z,22.40
2022-12-24T17:11:51.398Z,23.85
2022-12-24T17:14:53.782Z,21.75
2022-12-24T17:17:56.274Z,19.80
2022-12-24T17:21:03.667Z,31.05
2022-12-24T17:24:06.771Z,33.72
2022-12-24T17:27:09.253Z,31.20
2022-12-24T17:30:12.286Z,35.03
2022-12-24T17:33:15.303Z,38.10
2022-12-24T17:36:18.837Z,39.28
2022-12-24T17:39:27.442Z,43.63
2022-12-24T17:42:30.264Z,27.30
2022-12-24T17:45:32.573Z,43.75
2022-12-24T17:48:34.992Z,44.83
2022-12-24T17:51:43.300Z,40.05
2022-12-24T17:54:47.902Z,38.45
2022-12-24T17:57:50.364Z,40.97
2022-12-24T18:00:52.765Z,48.35
2022-12-24T18:03:55.202Z,45.55
2022-12-24T18:07:01.980Z,44.50
2022-12-24T18:10:06.010Z,52.15
2022-12-24T18:13:11.463Z,63.90
2022-12-24T18:16:31.148Z,50.95
2022-12-24T18:19:33.804Z,51.43
2022-12-24T18:22:36.227Z,50.40
2022-12-24T18:25:38.677Z,53.80
2022-12-24T18:28:41.632Z,57.90
2022-12-24T18:31:44.260Z,58.40
2022-12-24T18:34:46.870Z,53.50
2022-12-24T18:37:49.519Z,54.15
2022-12-24T18:40:51.896Z,59.00
2022-12-24T18:43:55.703Z,59.05
2022-12-24T18:46:58.644Z,94.65
2022-12-24T18:50:01.198Z,60.87
2022-12-24T18:53:04.103Z,54.63
2022-12-24T18:56:12.019Z,51.00
2022-12-24T18:59:14.470Z,49.07
2022-12-24T19:02:16.932Z,47.50
2022-12-24T19:05:19.484Z,50.10
2022-12-24T19:08:55.905Z,64.07
2022-12-24T19:11:44.255Z,63.90
2022-12-24T19:14:46.612Z,68.00
2022-12-24T19:17:54.065Z,32.42
2022-12-24T19:20:56.402Z,26.43
2022-12-24T19:23:58.789Z,28.17
2022-12-24T19:27:01.165Z,19.38
2022-12-24T19:30:05.516Z,16.30
2022-12-24T19:33:08.768Z,15.85
2022-12-24T19:36:14.696Z,13.35
2022-12-24T19:39:17.071Z,13.82
2022-12-24T19:42:19.700Z,17.92
2022-12-24T19:45:23.233Z,20.65
2022-12-24T19:48:25.955Z,36.65
2022-12-24T19:51:29.359Z,49.40
2022-12-24T19:54:31.757Z,46.38
2022-12-24T19:57:34.124Z,50.38
2022-12-24T20:00:36.600Z,81.07
2022-12-24T20:03:39.624Z,65.85
2022-12-24T20:06:42.140Z,52.65
2022-12-24T20:09:44.777Z,61.65
2022-12-24T20:12:47.236Z,60.42
2022-12-24T20:15:49.726Z,61.20
2022-12-24T20:18:53.966Z,60.83
2022-12-24T20:21:57.555Z,55.43
2022-12-24T20:24:59.949Z,64.10
2022-12-24T20:28:02.530Z,80.03
2022-12-24T20:31:23.336Z,72.97
2022-12-24T20:34:25.837Z,62.35
2022-12-24T20:37:28.231Z,47.17
2022-12-24T20:40:30.602Z,41.75
2022-12-24T20:43:37.302Z,46.28
2022-12-24T20:46:42.117Z,42.83
2022-12-24T20:49:44.640Z,45.63
2022-12-24T20:52:47.014Z,51.77
2022-12-24T20:55:54.041Z,59.92
2022-12-24T20:58:58.371Z,58.40
2022-12-24T21:02:03.999Z,59.93
2022-12-24T21:05:08.151Z,60.38
2022-12-24T21:08:12.152Z,57.08
2022-12-24T21:11:33.325Z,61.35
2022-12-24T21:14:35.736Z,56.25
2022-12-24T21:17:38.726Z,56.65
2022-12-24T21:20:42.931Z,52.85
2022-12-24T21:23:45.327Z,43.70
2022-12-24T21:26:47.818Z,44.63
2022-12-24T21:29:50.599Z,46.55
2022-12-24T21:32:53.004Z,48.90
2022-12-24T21:35:59.180Z,49.10
2022-12-24T21:39:01.575Z,50.50
2022-12-24T21:42:04.169Z,34.47
2022-12-24T21:45:07.117Z,44.60
2022-12-24T21:48:29.427Z,44.90
2022-12-24T21:51:32.328Z,51.83
2022-12-24T21:54:34.684Z,60.50
2022-12-24T21:57:54.881Z,64.00
2022-12-24T22:00:57.421Z,59.78
2022-12-24T22:03:59.775Z,61.70
2022-12-24T22:07:22.240Z,64.03
2022-12-24T22:10:49.697Z,47.45
2022-12-24T22:13:52.054Z,42.60
2022-12-24T22:16:54.556Z,19.15
2022-12-24T22:19:57.184Z,18.15
2022-12-24T22:23:00.488Z,18.83
2022-12-24T22:26:17.819Z,19.50
2022-12-24T22:29:20.213Z,23.58
2022-12-24T22:32:22.629Z,22.80
2022-12-24T22:35:25.177Z,23.17
2022-12-24T22:38:28.301Z,26.67
2022-12-24T22:41:30.762Z,19.13
2022-12-24T22:44:33.418Z,20.95
2022-12-24T22:47:35.796Z,23.13
2022-12-24T22:50:41.375Z,24.40
2022-12-24T22:53:44.326Z,26.45
2022-12-24T22:56:47.044Z,27.00
2022-12-24T22:59:49.402Z,27.73
2022-12-24T23:02:51.918Z,44.10
2022-12-24T23:06:02.925Z,42.97
2022-12-24T23:09:07.922Z,39.83
2022-12-24T23:12:10.285Z,37.83
2022-12-24T23:15:12.679Z,36.70
2022-12-24T23:18:15.366Z,35.33
2022-12-24T23:21:17.893Z,32.88
2022-12-24T23:24:20.385Z,36.17
2022-12-24T23:27:22.824Z,35.73
2022-12-24T23:30:25.233Z,35.55
2022-12-24T23:33:28.717Z,36.85
2022-12-24T23:36:31.077Z,34.17
2022-12-24T23:39:33.439Z,30.65
2022-12-24T23:42:35.780Z,35.15
2022-12-24T23:45:38.275Z,32.75
2022-12-24T23:48:41.724Z,25.33
2022-12-24T23:51:44.690Z,25.40
2022-12-24T23:54:47.027Z,23.73
2022-12-24T23:57:49.349Z,19.70
